This is the latest recevied weather packets stored in our database for station/object N5RPG. If no packets are shown the sender has not sent any weather packets the latest 10 day(s).
| Time | Temp. | Humidity | Pressure | Rain* | Wind** | Luminosity | Snow |
|---|---|---|---|---|---|---|---|
| 1777928865 | 27.78° C | 43% | 1012.1 hPa | 0 mm | - | 594 W/m² | - |
| 1777928563 | 27.22° C | 45% | 1012.2 hPa | 0 mm | - | 596 W/m² | - |
| 1777928259 | 27.22° C | 44% | 1012.3 hPa | 0 mm | - | 755 W/m² | - |
| 1777927957 | 27.78° C | 43% | 1012.4 hPa | 0 mm | - | 601 W/m² | - |
| 1777927655 | 27.22° C | 46% | 1012.4 hPa | 0 mm | - | 710 W/m² | - |
| 1777927353 | 27.22° C | 43% | 1012.3 hPa | 0 mm | - | 780 W/m² | - |
| 1777927052 | 27.22° C | 45% | 1012.6 hPa | 0 mm | - | 734 W/m² | - |
| 1777926749 | 27.22° C | 44% | 1012.7 hPa | 0 mm | - | 663 W/m² | - |
| 1777926449 | 27.78° C | 42% | 1012.7 hPa | 0 mm | - | 738 W/m² | - |
| 1777926146 | 27.22° C | 45% | 1012.9 hPa | 0 mm | - | 714 W/m² | - |
| 1777925844 | 26.67° C | 44% | 1013 hPa | 0 mm | - | 848 W/m² | - |
| 1777925541 | 27.22° C | 43% | 1013 hPa | 0 mm | - | 772 W/m² | - |
| 1777925238 | 27.22° C | 43% | 1013.1 hPa | 0 mm | - | 872 W/m² | - |
| 1777924934 | 27.22° C | 45% | 1013.1 hPa | 0 mm | - | 868 W/m² | - |
| 1777924631 | 26.67° C | 44% | 1013.3 hPa | 0 mm | - | 882 W/m² | - |
| 1777924327 | 26.67° C | 44% | 1013.5 hPa | 0 mm | - | 847 W/m² | - |
| 1777924024 | 26.67° C | 44% | 1013.6 hPa | 0 mm | - | 933 W/m² | - |
| 1777923720 | 26.67° C | 42% | 1013.8 hPa | 0 mm | - | 848 W/m² | - |
| 1777923416 | 26.67° C | 45% | 1013.5 hPa | 0 mm | - | 930 W/m² | - |
| 1777923114 | 27.22° C | 42% | 1013.9 hPa | 0 mm | - | 928 W/m² | - |
| 1777922812 | 26.11° C | 46% | 1013.8 hPa | 0 mm | - | 843 W/m² | - |
| 1777922510 | 26.67° C | 44% | 1014 hPa | 0 mm | - | 922 W/m² | - |
| 1777922208 | 26.67° C | 43% | 1014 hPa | 0 mm | - | 924 W/m² | - |
| 1777921904 | 26.67° C | 43% | 1014.1 hPa | 0 mm | - | 916 W/m² | - |
| 1777921600 | 26.11° C | 44% | 1014.2 hPa | 0 mm | - | 902 W/m² | - |
* Rain latest hour (hover to see other rain measurements)
** Current wind speed in m/s (hover to see current wind gust speed)